createdAt,value
2022-12-08T00:00:04.409Z,99380.05
2022-12-08T00:02:38.716Z,99374.64
2022-12-08T00:05:24.699Z,99383.40
2022-12-08T00:08:10.342Z,99379.23
2022-12-08T00:10:52.540Z,99385.34
2022-12-08T00:13:19.326Z,99386.44
2022-12-08T00:15:46.162Z,99380.23
2022-12-08T00:18:12.883Z,99396.42
2022-12-08T00:20:39.585Z,99391.55
2022-12-08T00:23:06.293Z,99391.23
2022-12-08T00:25:35.899Z,99386.24
2022-12-08T00:28:02.662Z,99388.11
2022-12-08T00:30:29.368Z,99386.55
2022-12-08T00:32:56.071Z,99390.48
2022-12-08T00:35:22.859Z,99395.86
2022-12-08T00:37:49.543Z,99399.04
2022-12-08T00:40:16.253Z,99393.83
2022-12-08T00:42:42.992Z,99401.56
2022-12-08T00:45:10.162Z,99401.55
2022-12-08T00:47:36.865Z,99400.31
2022-12-08T00:50:04.461Z,99406.39
2022-12-08T00:52:31.298Z,99403.14
2022-12-08T00:54:58.043Z,99402.49
2022-12-08T00:57:24.758Z,99402.00
2022-12-08T00:59:51.468Z,99409.09
2022-12-08T01:02:18.163Z,99412.71
2022-12-08T01:04:44.841Z,99408.59
2022-12-08T01:07:11.599Z,99405.03
2022-12-08T01:09:38.427Z,99411.60
2022-12-08T01:12:06.453Z,99407.60
2022-12-08T01:14:33.211Z,99413.09
2022-12-08T01:17:00.021Z,99411.46
2022-12-08T01:19:26.659Z,99414.84
2022-12-08T01:21:53.388Z,99420.20
2022-12-08T01:24:20.901Z,99420.19
2022-12-08T01:26:48.462Z,99423.77
2022-12-08T01:29:15.229Z,99423.66
2022-12-08T01:31:41.998Z,99424.67
2022-12-08T01:34:08.945Z,99423.39
2022-12-08T01:36:38.802Z,99425.86
2022-12-08T01:39:07.556Z,99433.66
2022-12-08T01:41:36.147Z,99439.94
2022-12-08T01:44:09.463Z,99447.15
2022-12-08T01:46:37.852Z,99447.78
2022-12-08T01:49:17.808Z,99455.89
2022-12-08T01:51:49.605Z,99456.67
2022-12-08T01:54:16.322Z,99460.35
2022-12-08T01:56:43.064Z,99455.67
2022-12-08T01:59:10.487Z,99457.96
2022-12-08T02:01:37.303Z,99456.79
2022-12-08T02:04:04.941Z,99456.30
2022-12-08T02:06:33.852Z,99458.40
2022-12-08T02:09:00.906Z,99454.80
2022-12-08T02:11:27.637Z,99460.94
2022-12-08T02:13:54.431Z,99460.48
2022-12-08T02:16:45.132Z,99459.84
2022-12-08T02:19:31.880Z,99458.23
2022-12-08T02:22:01.213Z,99456.70
2022-12-08T02:24:37.231Z,99457.36
2022-12-08T02:27:32.799Z,99455.73
2022-12-08T02:30:06.265Z,99454.16
2022-12-08T02:32:58.105Z,99452.97
2022-12-08T02:35:44.404Z,99460.77
2022-12-08T02:38:24.364Z,99470.58
2022-12-08T02:41:03.407Z,99471.57
2022-12-08T02:43:37.752Z,99468.59
2022-12-08T02:46:19.704Z,99462.73
2022-12-08T02:48:46.978Z,99476.11
2022-12-08T02:51:13.652Z,99468.50
2022-12-08T02:53:40.492Z,99474.55
2022-12-08T02:56:26.309Z,99467.31
2022-12-08T02:59:24.918Z,99471.73
2022-12-08T03:01:51.667Z,99476.98
2022-12-08T03:04:30.101Z,99481.08
2022-12-08T03:07:02.117Z,99484.95
2022-12-08T03:09:28.852Z,99489.40
2022-12-08T03:12:20.843Z,99486.66
2022-12-08T03:14:52.768Z,99475.12
2022-12-08T03:17:20.368Z,99486.29
2022-12-08T03:19:47.150Z,99487.42
2022-12-08T03:22:13.968Z,99490.80
2022-12-08T03:24:42.152Z,99485.71
2022-12-08T03:27:11.116Z,99483.20
2022-12-08T03:29:37.838Z,99481.50
2022-12-08T03:32:32.617Z,99485.67
2022-12-08T03:35:01.521Z,99478.66
2022-12-08T03:37:28.325Z,99489.57
2022-12-08T03:39:55.161Z,99492.27
2022-12-08T03:42:21.800Z,99496.29
2022-12-08T03:44:48.488Z,99494.55
2022-12-08T03:47:15.182Z,99497.21
2022-12-08T03:49:41.890Z,99495.38
2022-12-08T03:52:08.615Z,99495.20
2022-12-08T03:54:35.309Z,99496.67
2022-12-08T03:57:02.038Z,99503.02
2022-12-08T03:59:28.777Z,99504.83
2022-12-08T04:01:55.593Z,99506.00
2022-12-08T04:04:22.243Z,99506.18
2022-12-08T04:06:48.994Z,99514.22
2022-12-08T04:09:15.692Z,99506.50
2022-12-08T04:11:42.416Z,99508.63
2022-12-08T04:14:09.147Z,99515.46
2022-12-08T04:16:35.953Z,99518.34
2022-12-08T04:19:02.772Z,99517.45
2022-12-08T04:21:29.525Z,99517.95
2022-12-08T04:24:00.810Z,99524.43
2022-12-08T04:26:28.357Z,99523.63
2022-12-08T04:28:55.076Z,99523.80
2022-12-08T04:31:21.802Z,99526.24
2022-12-08T04:33:48.738Z,99530.16
2022-12-08T04:36:15.432Z,99522.52
2022-12-08T04:38:42.226Z,99522.16
2022-12-08T04:41:08.822Z,99521.39
2022-12-08T04:43:36.215Z,99521.52
2022-12-08T04:46:06.364Z,99522.53
2022-12-08T04:48:33.056Z,99523.53
2022-12-08T04:50:59.741Z,99523.88
2022-12-08T04:53:27.140Z,99524.73
2022-12-08T04:55:53.906Z,99526.45
2022-12-08T04:58:20.707Z,99527.84
2022-12-08T05:00:47.667Z,99534.08
2022-12-08T05:03:14.663Z,99535.02
2022-12-08T05:05:42.045Z,99535.98
2022-12-08T05:08:09.508Z,99537.89
2022-12-08T05:10:36.468Z,99533.55
2022-12-08T05:13:03.192Z,99542.95
2022-12-08T05:15:29.855Z,99544.27
2022-12-08T05:17:56.571Z,99553.52
2022-12-08T05:20:23.283Z,99554.52
2022-12-08T05:22:50.052Z,99561.73
2022-12-08T05:25:16.808Z,99565.96
2022-12-08T05:27:43.811Z,99568.79
2022-12-08T05:30:10.650Z,99568.98
2022-12-08T05:32:37.242Z,99577.20
2022-12-08T05:35:04.063Z,99566.17
2022-12-08T05:37:30.832Z,99576.96
2022-12-08T05:39:57.528Z,99582.79
2022-12-08T05:42:25.108Z,99587.67
2022-12-08T05:44:52.411Z,99591.70
2022-12-08T05:47:19.020Z,99590.18
2022-12-08T05:49:46.660Z,99590.06
2022-12-08T05:52:13.337Z,99580.77
2022-12-08T05:54:40.010Z,99585.13
2022-12-08T05:57:06.928Z,99590.92
2022-12-08T05:59:33.547Z,99594.17
2022-12-08T06:02:00.370Z,99595.30
2022-12-08T06:04:27.116Z,99598.55
2022-12-08T06:06:53.914Z,99600.34
2022-12-08T06:09:20.507Z,99598.02
2022-12-08T06:11:47.300Z,99601.95
2022-12-08T06:14:13.901Z,99605.54
2022-12-08T06:16:41.093Z,99609.01
2022-12-08T06:19:07.961Z,99608.08
2022-12-08T06:21:34.696Z,99609.55
2022-12-08T06:24:01.436Z,99614.86
2022-12-08T06:26:28.889Z,99616.14
2022-12-08T06:28:55.590Z,99620.02
2022-12-08T06:31:26.170Z,99623.42
2022-12-08T06:33:53.752Z,99620.94
2022-12-08T06:36:21.878Z,99632.35
2022-12-08T06:38:48.649Z,99635.38
2022-12-08T06:41:15.459Z,99635.94
2022-12-08T06:43:42.103Z,99637.14
2022-12-08T06:46:11.440Z,99640.73
2022-12-08T06:48:38.276Z,99648.42
2022-12-08T06:51:10.181Z,99644.23
2022-12-08T06:53:37.401Z,99643.67
2022-12-08T06:56:04.381Z,99647.02
2022-12-08T06:58:31.209Z,99647.10
2022-12-08T07:00:58.058Z,99648.29
2022-12-08T07:03:24.771Z,99649.14
2022-12-08T07:05:59.000Z,99649.54
2022-12-08T07:08:30.198Z,99651.00
2022-12-08T07:10:56.927Z,99654.63
2022-12-08T07:13:23.666Z,99655.86
2022-12-08T07:15:50.368Z,99659.20
2022-12-08T07:18:17.144Z,99658.19
2022-12-08T07:20:43.901Z,99662.10
2022-12-08T07:23:10.609Z,99660.27
2022-12-08T07:25:37.409Z,99660.21
2022-12-08T07:28:08.179Z,99666.07
2022-12-08T07:30:34.913Z,99668.34
2022-12-08T07:33:03.009Z,99672.46
2022-12-08T07:35:29.687Z,99675.40
2022-12-08T07:37:57.719Z,99686.14
2022-12-08T07:40:24.414Z,99680.01
2022-12-08T07:42:51.137Z,99685.01
2022-12-08T07:45:17.839Z,99685.98
2022-12-08T07:47:44.525Z,99686.20
2022-12-08T07:50:11.283Z,99687.68
2022-12-08T07:52:37.900Z,99692.83
2022-12-08T07:55:04.993Z,99696.44
2022-12-08T07:57:31.708Z,99692.59
2022-12-08T07:59:58.386Z,99690.34
2022-12-08T08:02:26.115Z,99696.27
2022-12-08T08:04:53.553Z,99695.29
2022-12-08T08:07:20.435Z,99697.30
2022-12-08T08:09:47.137Z,99699.42
2022-12-08T08:12:30.647Z,99704.09
2022-12-08T08:14:58.950Z,99704.17
2022-12-08T08:17:25.822Z,99706.37
2022-12-08T08:19:52.649Z,99709.88
2022-12-08T08:22:19.353Z,99710.23
2022-12-08T08:24:46.041Z,99709.58
2022-12-08T08:27:12.935Z,99715.41
2022-12-08T08:29:39.557Z,99714.63
2022-12-08T08:32:06.287Z,99711.16
2022-12-08T08:34:33.016Z,99713.17
2022-12-08T08:36:59.811Z,99709.54
2022-12-08T08:39:26.777Z,99715.61
2022-12-08T08:41:53.520Z,99713.08
2022-12-08T08:44:20.259Z,99708.92
2022-12-08T08:46:47.041Z,99708.30
2022-12-08T08:50:46.032Z,99711.64
2022-12-08T08:53:12.930Z,99707.30
2022-12-08T08:55:40.206Z,99707.45
2022-12-08T08:58:06.921Z,99708.50
2022-12-08T09:00:33.651Z,99710.92
2022-12-08T09:03:00.348Z,99713.25
2022-12-08T09:05:27.111Z,99712.20
2022-12-08T09:07:53.797Z,99710.54
2022-12-08T09:10:20.531Z,99713.95
2022-12-08T09:12:47.287Z,99714.55
2022-12-08T09:15:13.875Z,99714.86
2022-12-08T09:17:40.645Z,99715.13
2022-12-08T09:20:08.018Z,99714.05
2022-12-08T09:22:34.874Z,99710.54
2022-12-08T09:25:01.561Z,99713.35
2022-12-08T09:27:28.299Z,99715.95
2022-12-08T09:29:55.044Z,99711.69
2022-12-08T09:32:21.777Z,99712.08
2022-12-08T09:34:52.123Z,99709.34
2022-12-08T09:37:19.084Z,99706.90
2022-12-08T09:39:46.746Z,99712.64
2022-12-08T09:42:13.440Z,99712.98
2022-12-08T09:45:02.486Z,99710.67
2022-12-08T09:47:35.979Z,99713.66
2022-12-08T09:50:35.408Z,99718.50
2022-12-08T09:53:07.288Z,99714.90
2022-12-08T09:55:43.202Z,99713.17
2022-12-08T09:58:17.456Z,99713.60
2022-12-08T10:00:44.170Z,99713.88
2022-12-08T10:03:16.584Z,99712.71
2022-12-08T10:05:50.126Z,99711.98
2022-12-08T10:08:20.306Z,99710.45
2022-12-08T10:11:00.122Z,99713.20
2022-12-08T10:13:38.895Z,99709.15
2022-12-08T10:16:33.856Z,99702.94
2022-12-08T10:19:20.257Z,99712.98
2022-12-08T10:21:47.000Z,99707.46
2022-12-08T10:24:26.041Z,99704.42
2022-12-08T10:26:52.784Z,99705.98
2022-12-08T10:29:19.514Z,99708.34
2022-12-08T10:31:46.338Z,99707.24
2022-12-08T10:34:17.597Z,99712.88
2022-12-08T10:36:58.086Z,99709.77
2022-12-08T10:39:41.150Z,99704.43
2022-12-08T10:42:14.103Z,99711.86
2022-12-08T10:45:04.173Z,99709.52
2022-12-08T10:47:30.937Z,99709.21
2022-12-08T10:50:21.254Z,99711.27
2022-12-08T10:53:07.259Z,99707.85
2022-12-08T10:55:47.109Z,99715.81
2022-12-08T10:58:46.480Z,99710.77
2022-12-08T11:01:24.475Z,99710.59
2022-12-08T11:03:56.995Z,99715.25
2022-12-08T11:06:37.079Z,99715.38
2022-12-08T11:09:07.503Z,99716.64
2022-12-08T11:11:54.050Z,99717.48
2022-12-08T11:14:25.970Z,99716.30
2022-12-08T11:16:54.331Z,99718.61
2022-12-08T11:19:21.394Z,99713.66
2022-12-08T11:21:48.153Z,99710.81
2022-12-08T11:24:14.849Z,99707.88
2022-12-08T11:26:52.439Z,99706.45
2022-12-08T11:29:19.742Z,99704.63
2022-12-08T11:32:01.281Z,99706.86
2022-12-08T11:34:32.360Z,99705.31
2022-12-08T11:36:59.153Z,99707.63
2022-12-08T11:39:28.846Z,99709.20
2022-12-08T11:41:55.623Z,99706.92
2022-12-08T11:44:26.855Z,99706.42
2022-12-08T11:46:58.503Z,99705.38
2022-12-08T11:49:34.864Z,99702.89
2022-12-08T11:52:28.230Z,99707.02
2022-12-08T11:55:00.298Z,99707.93
2022-12-08T11:57:27.087Z,99703.80
2022-12-08T11:59:54.898Z,99702.42
2022-12-08T12:02:24.151Z,99697.40
2022-12-08T12:04:52.060Z,99696.39
2022-12-08T12:07:31.736Z,99697.38
2022-12-08T12:10:19.164Z,99694.17
2022-12-08T12:12:56.053Z,99687.19
2022-12-08T12:15:53.937Z,99686.47
2022-12-08T12:18:27.511Z,99685.84
2022-12-08T12:21:10.655Z,99682.50
2022-12-08T12:23:40.393Z,99683.07
2022-12-08T12:26:08.645Z,99684.73
2022-12-08T12:28:44.426Z,99687.70
2022-12-08T12:31:16.546Z,99681.58
2022-12-08T12:33:43.770Z,99679.35
2022-12-08T12:36:10.486Z,99686.80
2022-12-08T12:38:58.084Z,99693.21
2022-12-08T12:41:26.541Z,99699.55
2022-12-08T12:44:22.693Z,99703.35
2022-12-08T12:46:49.425Z,99708.64
2022-12-08T12:49:37.776Z,99709.11
2022-12-08T12:52:10.215Z,99703.27
2022-12-08T12:54:36.958Z,99708.40
2022-12-08T12:57:09.618Z,99704.45
2022-12-08T12:59:42.575Z,99711.78
2022-12-08T13:02:18.149Z,99709.44
2022-12-08T13:04:44.940Z,99714.02
2022-12-08T13:07:20.883Z,99710.34
2022-12-08T13:09:48.734Z,99712.30
2022-12-08T13:12:20.083Z,99715.88
2022-12-08T13:14:49.127Z,99713.73
2022-12-08T13:17:36.644Z,99712.48
2022-12-08T13:20:05.851Z,99708.86
2022-12-08T13:22:54.231Z,99712.02
2022-12-08T13:25:42.168Z,99718.89
2022-12-08T13:28:13.989Z,99719.34
2022-12-08T13:30:51.636Z,99718.60
2022-12-08T13:33:29.012Z,99720.52
2022-12-08T13:36:06.417Z,99722.02
2022-12-08T13:38:35.519Z,99721.34
2022-12-08T13:41:04.733Z,99719.89
2022-12-08T13:44:20.601Z,99720.50
2022-12-08T13:58:20.188Z,99728.71
2022-12-08T14:00:58.969Z,99720.86
2022-12-08T14:03:25.694Z,99729.88
2022-12-08T14:11:35.867Z,99730.51
2022-12-08T14:14:06.582Z,99733.31
2022-12-08T14:16:37.620Z,99737.59
2022-12-08T14:19:16.224Z,99743.13
2022-12-08T14:21:47.132Z,99739.54
2022-12-08T14:24:13.896Z,99740.68
2022-12-08T14:26:40.602Z,99740.80
2022-12-08T14:29:09.047Z,99732.81
2022-12-08T14:31:35.843Z,99738.20
2022-12-08T14:34:02.651Z,99739.68
2022-12-08T14:36:29.340Z,99738.30
2022-12-08T14:38:56.091Z,99736.80
2022-12-08T14:41:28.194Z,99737.09
2022-12-08T14:43:59.715Z,99741.66
2022-12-08T14:46:26.646Z,99746.41
2022-12-08T14:48:55.031Z,99746.58
2022-12-08T14:51:26.738Z,99741.86
2022-12-08T14:53:58.782Z,99735.66
2022-12-08T14:56:34.739Z,99733.73
2022-12-08T14:59:04.262Z,99735.32
2022-12-08T15:01:31.048Z,99739.13
2022-12-08T15:04:01.785Z,99737.55
2022-12-08T15:06:28.531Z,99737.86
2022-12-08T15:08:58.741Z,99735.49
2022-12-08T15:11:33.086Z,99735.30
2022-12-08T15:13:59.914Z,99744.48
2022-12-08T15:16:32.575Z,99743.89
2022-12-08T15:19:05.386Z,99740.08
2022-12-08T15:21:35.158Z,99738.87
2022-12-08T15:24:01.875Z,99744.98
2022-12-08T15:26:28.683Z,99748.45
2022-12-08T15:28:55.525Z,99744.39
2022-12-08T15:31:22.185Z,99739.81
2022-12-08T15:33:49.036Z,99739.95
2022-12-08T15:36:15.759Z,99739.85
2022-12-08T15:38:42.541Z,99739.90
2022-12-08T15:41:14.605Z,99737.95
2022-12-08T15:43:42.068Z,99739.77
2022-12-08T15:46:08.848Z,99740.36
2022-12-08T15:48:36.851Z,99746.55
2022-12-08T15:51:03.665Z,99743.77
2022-12-08T15:53:30.262Z,99746.02
2022-12-08T15:56:27.015Z,99747.30
2022-12-08T15:58:59.391Z,99752.02
2022-12-08T16:01:26.787Z,99754.98
2022-12-08T16:09:38.695Z,99747.85
2022-12-08T16:12:25.567Z,99743.15
2022-12-08T16:17:40.054Z,99742.41
2022-12-08T16:20:16.914Z,99740.98
2022-12-08T16:22:54.537Z,99740.41
2022-12-08T16:25:46.105Z,99740.51
2022-12-08T16:28:52.247Z,99736.66
2022-12-08T16:31:06.436Z,99737.74
2022-12-08T16:33:35.741Z,99739.77
2022-12-08T16:36:02.476Z,99736.40
2022-12-08T16:38:29.204Z,99731.51
2022-12-08T16:41:14.804Z,99730.52
2022-12-08T16:43:41.675Z,99734.77
2022-12-08T16:46:08.370Z,99735.50
2022-12-08T16:48:35.103Z,99733.77
2022-12-08T16:51:04.572Z,99731.89
2022-12-08T16:53:31.460Z,99731.86
2022-12-08T16:56:00.921Z,99727.08
2022-12-08T16:58:27.905Z,99717.58
2022-12-08T17:00:54.575Z,99722.80
2022-12-08T17:03:21.328Z,99722.88
2022-12-08T17:05:48.079Z,99713.66
2022-12-08T17:08:14.971Z,99718.38
2022-12-08T17:10:41.853Z,99718.94
2022-12-08T17:13:08.551Z,99715.59
2022-12-08T17:15:35.249Z,99713.52
2022-12-08T17:18:02.454Z,99711.62
2022-12-08T17:20:29.790Z,99711.15
2022-12-08T17:22:57.825Z,99707.87
2022-12-08T17:25:25.747Z,99711.72
2022-12-08T17:27:52.481Z,99706.85
2022-12-08T17:30:19.671Z,99708.51
2022-12-08T17:32:46.446Z,99707.11
2022-12-08T17:35:13.453Z,99702.63
2022-12-08T17:37:40.497Z,99702.34
2022-12-08T17:40:07.957Z,99702.48
2022-12-08T17:42:34.995Z,99703.06
2022-12-08T17:45:01.785Z,99699.00
2022-12-08T17:47:28.599Z,99694.13
2022-12-08T17:49:56.153Z,99693.27
2022-12-08T17:52:23.004Z,99694.58
2022-12-08T17:54:49.762Z,99692.86
2022-12-08T17:57:16.463Z,99699.14
2022-12-08T17:59:43.158Z,99697.95
2022-12-08T18:02:10.907Z,99700.84
2022-12-08T18:04:37.706Z,99701.16
2022-12-08T18:07:04.559Z,99696.51
2022-12-08T18:09:31.321Z,99697.58
2022-12-08T18:11:58.135Z,99699.52
2022-12-08T18:14:24.884Z,99701.27
2022-12-08T18:16:51.626Z,99699.29
2022-12-08T18:19:18.412Z,99697.61
2022-12-08T18:21:45.281Z,99698.07
2022-12-08T18:24:15.921Z,99700.73
2022-12-08T18:26:42.632Z,99707.86
2022-12-08T18:29:09.411Z,99708.68
2022-12-08T18:31:36.230Z,99706.72
2022-12-08T18:34:03.084Z,99703.85
2022-12-08T18:36:29.761Z,99704.77
2022-12-08T18:38:56.488Z,99700.06
2022-12-08T18:41:25.622Z,99696.61
2022-12-08T18:43:53.726Z,99692.58
2022-12-08T18:46:21.274Z,99693.91
2022-12-08T18:48:48.855Z,99691.80
2022-12-08T18:51:17.643Z,99688.13
2022-12-08T18:53:44.478Z,99686.26
2022-12-08T18:56:21.244Z,99683.04
2022-12-08T18:58:47.936Z,99670.22
2022-12-08T19:01:14.927Z,99658.67
2022-12-08T19:03:52.736Z,99663.71
2022-12-08T19:06:29.744Z,99664.39
2022-12-08T19:08:56.621Z,99661.11
2022-12-08T19:11:24.048Z,99660.23
2022-12-08T19:13:50.953Z,99656.94
2022-12-08T19:16:17.635Z,99651.52
2022-12-08T19:18:44.450Z,99657.47
2022-12-08T19:21:12.484Z,99653.03
2022-12-08T19:23:39.700Z,99655.52
2022-12-08T19:26:06.884Z,99653.02
2022-12-08T19:28:33.761Z,99653.04
2022-12-08T19:31:00.405Z,99650.67
2022-12-08T19:33:27.169Z,99656.09
2022-12-08T19:35:53.868Z,99648.40
2022-12-08T19:38:20.577Z,99653.21
2022-12-08T19:41:06.086Z,99659.19
2022-12-08T19:43:51.356Z,99655.52
2022-12-08T19:46:18.614Z,99654.88
2022-12-08T19:48:45.632Z,99660.42
2022-12-08T19:51:12.360Z,99660.50
2022-12-08T19:53:41.853Z,99656.74
2022-12-08T19:56:12.793Z,99660.11
2022-12-08T19:58:39.606Z,99659.60
2022-12-08T20:01:06.285Z,99655.95
2022-12-08T20:03:33.089Z,99658.30
2022-12-08T20:05:59.781Z,99655.70
2022-12-08T20:08:26.628Z,99656.64
2022-12-08T20:10:56.027Z,99659.39
2022-12-08T20:13:40.897Z,99656.82
2022-12-08T20:16:08.227Z,99658.70
2022-12-08T20:18:36.254Z,99655.30
2022-12-08T20:21:03.092Z,99651.48
2022-12-08T20:23:29.784Z,99655.52
2022-12-08T20:25:56.572Z,99658.92
2022-12-08T20:28:23.322Z,99661.88
2022-12-08T20:30:50.248Z,99664.34
2022-12-08T20:33:17.870Z,99664.45
2022-12-08T20:35:45.009Z,99669.20
2022-12-08T20:38:12.536Z,99672.80
2022-12-08T20:40:43.984Z,99676.34
2022-12-08T20:43:10.800Z,99675.89
2022-12-08T20:45:37.493Z,99683.07
2022-12-08T20:48:05.118Z,99688.79
2022-12-08T20:50:31.957Z,99695.90
2022-12-08T20:52:58.790Z,99695.13
2022-12-08T20:55:25.520Z,99690.83
2022-12-08T20:57:52.343Z,99686.15
2022-12-08T21:00:21.260Z,99685.98
2022-12-08T21:02:53.367Z,99686.83
2022-12-08T21:08:07.712Z,99683.28
2022-12-08T21:10:39.128Z,99684.39
2022-12-08T21:13:09.082Z,99676.64
2022-12-08T21:15:36.185Z,99669.36
2022-12-08T21:18:03.131Z,99666.23
2022-12-08T21:20:30.137Z,99667.77
2022-12-08T21:22:57.000Z,99668.18
2022-12-08T21:25:23.805Z,99667.84
2022-12-08T21:27:50.763Z,99670.31
2022-12-08T21:30:17.820Z,99672.95
2022-12-08T21:32:44.900Z,99677.17
2022-12-08T21:35:11.815Z,99676.94
2022-12-08T21:37:38.682Z,99678.77
2022-12-08T21:40:06.750Z,99679.07
2022-12-08T21:42:46.289Z,99674.41
2022-12-08T21:45:17.826Z,99674.55
2022-12-08T21:47:45.660Z,99676.98
2022-12-08T21:50:13.296Z,99678.49
2022-12-08T21:52:41.196Z,99674.63
2022-12-08T21:55:08.762Z,99675.27
2022-12-08T21:57:35.564Z,99674.88
2022-12-08T22:00:02.337Z,99676.27
2022-12-08T22:02:31.104Z,99676.98
2022-12-08T22:04:57.941Z,99676.55
2022-12-08T22:07:24.772Z,99676.30
2022-12-08T22:09:51.714Z,99669.20
2022-12-08T22:12:18.627Z,99662.38
2022-12-08T22:14:45.402Z,99661.33
2022-12-08T22:17:12.391Z,99661.27
2022-12-08T22:19:39.417Z,99658.11
2022-12-08T22:22:06.392Z,99655.08
2022-12-08T22:24:33.267Z,99655.10
2022-12-08T22:26:59.980Z,99651.27
2022-12-08T22:29:26.957Z,99648.27
2022-12-08T22:31:53.766Z,99647.09
2022-12-08T22:34:20.556Z,99650.02
2022-12-08T22:36:49.056Z,99646.00
2022-12-08T22:39:15.931Z,99642.84
2022-12-08T22:41:42.669Z,99640.66
2022-12-08T22:44:09.563Z,99641.35
2022-12-08T22:46:36.295Z,99640.46
2022-12-08T22:49:03.190Z,99630.77
2022-12-08T22:51:29.975Z,99624.62
2022-12-08T22:53:56.831Z,99618.07
2022-12-08T22:56:23.710Z,99616.58
2022-12-08T22:58:51.252Z,99609.61
2022-12-08T23:01:25.066Z,99608.41
2022-12-08T23:03:51.829Z,99612.20
2022-12-08T23:06:18.767Z,99612.23
2022-12-08T23:08:45.850Z,99614.12
2022-12-08T23:11:12.920Z,99612.27
2022-12-08T23:13:39.944Z,99613.00
2022-12-08T23:16:07.916Z,99605.56
2022-12-08T23:18:34.660Z,99612.45
2022-12-08T23:21:07.800Z,99611.27
2022-12-08T23:23:34.623Z,99614.41
2022-12-08T23:26:01.488Z,99610.20
